createdAt,value
2017-07-21T00:00:51.840Z,91.3
2017-07-21T00:02:00.973Z,91.39
2017-07-21T00:03:10.091Z,91.3
2017-07-21T00:04:19.068Z,91.78
2017-07-21T00:05:28.068Z,91.3
2017-07-21T00:06:37.077Z,91.68
2017-07-21T00:07:46.386Z,91.49
2017-07-21T00:08:55.454Z,91.49
2017-07-21T00:10:04.472Z,91.59
2017-07-21T00:11:13.854Z,91.3
2017-07-21T00:12:22.933Z,91.88
2017-07-21T00:13:32.324Z,91.59
2017-07-21T00:14:41.717Z,91.64
2017-07-21T00:15:50.940Z,91.93
2017-07-21T00:16:59.924Z,91.64
2017-07-21T00:18:09.544Z,91.97
2017-07-21T00:19:18.510Z,92.41
2017-07-21T00:20:27.676Z,92.32
2017-07-21T00:21:36.642Z,92.5
2017-07-21T00:22:45.605Z,92.41
2017-07-21T00:23:54.563Z,92.32
2017-07-21T00:25:03.626Z,92.02
2017-07-21T00:26:12.733Z,91.74
2017-07-21T00:27:21.747Z,91.64
2017-07-21T00:28:30.740Z,91.64
2017-07-21T00:29:39.901Z,91.83
2017-07-21T00:30:48.879Z,91.83
2017-07-21T00:31:58.019Z,91.64
2017-07-21T00:33:07.255Z,91.64
2017-07-21T00:34:16.233Z,91.74
2017-07-21T00:35:25.268Z,91.93
2017-07-21T00:36:34.370Z,91.64
2017-07-21T00:37:43.528Z,91.44
2017-07-21T00:38:52.481Z,91.25
2017-07-21T00:40:02.218Z,91.64
2017-07-21T00:41:11.236Z,91.25
2017-07-21T00:42:20.361Z,91.64
2017-07-21T00:43:29.323Z,91.44
2017-07-21T00:44:38.461Z,91.35
2017-07-21T00:45:47.411Z,91.54
2017-07-21T00:46:56.612Z,91.35
2017-07-21T00:48:05.610Z,91.44
2017-07-21T00:49:14.714Z,91.44
2017-07-21T00:50:23.781Z,91.74
2017-07-21T00:51:33.270Z,91.54
2017-07-21T00:52:42.557Z,91.44
2017-07-21T00:53:51.616Z,91.64
2017-07-21T00:55:00.594Z,91.54
2017-07-21T00:56:09.631Z,91.83
2017-07-21T00:57:18.584Z,91.83
2017-07-21T00:58:27.681Z,91.64
2017-07-21T00:59:37.101Z,91.93
2017-07-21T01:00:46.202Z,91.64
2017-07-21T01:01:55.436Z,91.64
2017-07-21T01:03:04.392Z,92.02
2017-07-21T01:04:13.502Z,91.64
2017-07-21T01:05:22.450Z,91.64
2017-07-21T01:06:31.569Z,91.74
2017-07-21T01:07:40.526Z,92.12
2017-07-21T01:08:49.564Z,91.83
2017-07-21T01:09:58.530Z,92.02
2017-07-21T01:11:07.613Z,92.32
2017-07-21T01:12:16.628Z,92.5
2017-07-21T01:13:25.665Z,92.12
2017-07-21T01:14:34.629Z,92.12
2017-07-21T01:15:43.670Z,92.32
2017-07-21T01:16:52.790Z,92.5
2017-07-21T01:18:01.848Z,92.27
2017-07-21T01:19:11.319Z,92.36
2017-07-21T01:20:20.487Z,92.36
2017-07-21T01:21:29.462Z,92.5
2017-07-21T01:22:38.644Z,92.36
2017-07-21T01:23:47.632Z,92.36
2017-07-21T01:24:56.828Z,92.46
2017-07-21T01:26:05.801Z,92.46
2017-07-21T01:27:14.918Z,92.36
2017-07-21T01:28:24.209Z,92.5
2017-07-21T01:29:33.334Z,91.93
2017-07-21T01:30:42.360Z,92.17
2017-07-21T01:31:51.500Z,91.88
2017-07-21T01:33:00.638Z,91.69
2017-07-21T01:34:09.601Z,91.54
2017-07-21T01:35:18.577Z,91.93
2017-07-21T01:36:27.598Z,91.4
2017-07-21T01:37:36.701Z,91.6
2017-07-21T01:38:45.745Z,91.3
2017-07-21T01:39:54.828Z,91.4
2017-07-21T01:41:03.787Z,91.3
2017-07-21T01:42:13.396Z,91.3
2017-07-21T01:43:22.356Z,91.2
2017-07-21T01:44:31.482Z,91.2
2017-07-21T01:45:40.496Z,91.2
2017-07-21T01:46:49.593Z,91.2
2017-07-21T01:47:58.573Z,90.92
2017-07-21T01:49:07.991Z,91.02
2017-07-21T01:50:16.978Z,90.92
2017-07-21T01:51:26.117Z,90.92
2017-07-21T01:52:35.201Z,90.24
2017-07-21T01:53:44.194Z,90.53
2017-07-21T01:54:53.286Z,90.44
2017-07-21T01:56:02.316Z,90.34
2017-07-21T01:57:11.356Z,90.24
2017-07-21T01:58:20.794Z,90.44
2017-07-21T01:59:29.833Z,90.63
2017-07-21T02:00:38.794Z,89.57
2017-07-21T02:01:48.022Z,89.86
2017-07-21T02:02:56.982Z,89.76
2017-07-21T02:04:06.278Z,89.28
2017-07-21T02:05:15.295Z,89.18
2017-07-21T02:06:24.413Z,89.28
2017-07-21T02:07:33.405Z,89.09
2017-07-21T02:08:42.495Z,89.09
2017-07-21T02:09:51.630Z,88.6
2017-07-21T02:11:00.860Z,88.7
2017-07-21T02:12:09.868Z,88.79
2017-07-21T02:13:18.989Z,88.89
2017-07-21T02:14:27.983Z,88.02
2017-07-21T02:15:36.983Z,88.12
2017-07-21T02:16:45.942Z,88.31
2017-07-21T02:17:54.901Z,87.74
2017-07-21T02:19:03.858Z,87.74
2017-07-21T02:20:13.139Z,88.31
2017-07-21T02:21:22.746Z,87.93
2017-07-21T02:22:32.061Z,88.51
2017-07-21T02:23:41.346Z,87.93
2017-07-21T02:24:50.304Z,88.02
2017-07-21T02:25:59.286Z,88.41
2017-07-21T02:27:08.258Z,87.93
2017-07-21T02:28:17.218Z,87.83
2017-07-21T02:29:26.182Z,88.22
2017-07-21T02:30:35.140Z,88.41
2017-07-21T02:31:44.105Z,87.93
2017-07-21T02:32:53.070Z,88.51
2017-07-21T02:34:02.028Z,88.41
2017-07-21T02:35:10.994Z,88.51
2017-07-21T02:36:19.948Z,88.51
2017-07-21T02:37:28.903Z,88.31
2017-07-21T02:38:37.867Z,88.41
2017-07-21T02:39:46.827Z,88.31
2017-07-21T02:40:55.785Z,88.6
2017-07-21T02:42:04.764Z,88.37
2017-07-21T02:43:13.717Z,88.41
2017-07-21T02:44:22.669Z,88.08
2017-07-21T02:45:31.950Z,88.17
2017-07-21T02:46:40.900Z,88.51
2017-07-21T02:47:49.868Z,88.95
2017-07-21T02:48:58.820Z,88.79
2017-07-21T02:50:08.113Z,88.75
2017-07-21T02:51:17.073Z,88.75
2017-07-21T02:52:26.033Z,88.75
2017-07-21T02:53:34.994Z,88.85
2017-07-21T02:54:43.956Z,89.23
2017-07-21T02:55:52.936Z,89.43
2017-07-21T02:57:01.908Z,89.14
2017-07-21T02:58:10.869Z,89.76
2017-07-21T02:59:19.836Z,89.53
2017-07-21T03:00:28.791Z,89.23
2017-07-21T03:01:37.745Z,89.72
2017-07-21T03:02:47.020Z,89.91
2017-07-21T03:03:55.981Z,89.91
2017-07-21T03:05:04.944Z,89.53
2017-07-21T03:06:13.904Z,89.72
2017-07-21T03:07:22.866Z,89.72
2017-07-21T03:08:31.829Z,89.81
2017-07-21T03:09:40.795Z,89.62
2017-07-21T03:10:49.750Z,89.72
2017-07-21T03:11:58.701Z,89.91
2017-07-21T03:13:07.661Z,89.81
2017-07-21T03:14:16.622Z,89.81
2017-07-21T03:15:25.579Z,90.1
2017-07-21T03:16:34.544Z,89.72
2017-07-21T03:17:43.826Z,90
2017-07-21T03:18:52.777Z,90.1
2017-07-21T03:20:01.741Z,89.33
2017-07-21T03:21:10.703Z,88.95
2017-07-21T03:22:19.663Z,89.14
2017-07-21T03:23:28.635Z,89.23
2017-07-21T03:24:37.601Z,89.04
2017-07-21T03:25:46.557Z,88.85
2017-07-21T03:26:55.833Z,88.65
2017-07-21T03:28:04.790Z,88.65
2017-07-21T03:29:13.746Z,88.46
2017-07-21T03:30:25.749Z,89.14
2017-07-21T03:31:35.018Z,88.75
2017-07-21T03:32:43.970Z,88.95
2017-07-21T03:33:52.930Z,88.71
2017-07-21T03:35:01.884Z,88.85
2017-07-21T03:36:10.841Z,88.95
2017-07-21T03:37:19.886Z,88.37
2017-07-21T03:38:28.851Z,88.46
2017-07-21T03:39:37.809Z,88.27
2017-07-21T03:40:46.915Z,88.08
2017-07-21T03:41:55.871Z,87.98
2017-07-21T03:43:04.835Z,88.61
2017-07-21T03:44:13.796Z,88.65
2017-07-21T03:45:22.754Z,88.61
2017-07-21T03:46:31.712Z,87.88
2017-07-21T03:47:40.677Z,87.79
2017-07-21T03:48:49.634Z,87.98
2017-07-21T03:49:58.596Z,87.84
2017-07-21T03:51:07.553Z,87.46
2017-07-21T03:52:16.505Z,87.17
2017-07-21T03:53:25.464Z,87.55
2017-07-21T03:54:34.740Z,87.4
2017-07-21T03:55:43.705Z,87.26
2017-07-21T03:56:52.661Z,87.26
2017-07-21T03:58:01.931Z,87.17
2017-07-21T03:59:10.890Z,86.98
2017-07-21T04:00:19.889Z,86.98
2017-07-21T04:01:28.852Z,86.98
2017-07-21T04:02:37.806Z,87.17
2017-07-21T04:03:46.778Z,86.78
2017-07-21T04:04:56.067Z,87.07
2017-07-21T04:06:05.018Z,87.17
2017-07-21T04:07:13.975Z,86.92
2017-07-21T04:08:22.940Z,86.44
2017-07-21T04:09:31.905Z,86.54
2017-07-21T04:10:40.858Z,86.44
2017-07-21T04:11:49.811Z,86.82
2017-07-21T04:12:58.769Z,86.44
2017-07-21T04:14:07.728Z,86.49
2017-07-21T04:15:16.685Z,86.35
2017-07-21T04:16:25.644Z,86.49
2017-07-21T04:17:34.600Z,86.3
2017-07-21T04:18:43.559Z,86.69
2017-07-21T04:19:52.517Z,86.88
2017-07-21T04:21:01.807Z,86.49
2017-07-21T04:22:10.761Z,86.49
2017-07-21T04:23:19.715Z,86.69
2017-07-21T04:24:28.674Z,86.49
2017-07-21T04:25:37.635Z,86.49
2017-07-21T04:26:46.591Z,86.3
2017-07-21T04:27:55.552Z,86.4
2017-07-21T04:29:04.509Z,86.59
2017-07-21T04:30:13.460Z,86.98
2017-07-21T04:31:22.416Z,86.98
2017-07-21T04:32:31.380Z,86.49
2017-07-21T04:33:40.332Z,86.3
2017-07-21T04:34:49.284Z,86.59
2017-07-21T04:35:58.237Z,86.59
2017-07-21T04:37:07.194Z,86.11
2017-07-21T04:38:16.155Z,85.82
2017-07-21T04:39:25.121Z,85.91
2017-07-21T04:40:34.080Z,86.3
2017-07-21T04:41:43.044Z,86.21
2017-07-21T04:42:52.013Z,85.91
2017-07-21T04:44:00.977Z,85.91
2017-07-21T04:45:09.930Z,85.82
2017-07-21T04:46:18.884Z,86.01
2017-07-21T04:47:28.176Z,85.91
2017-07-21T04:48:37.131Z,85.63
2017-07-21T04:49:46.087Z,85.63
2017-07-21T04:50:55.041Z,86.11
2017-07-21T04:52:04.001Z,85.82
2017-07-21T04:53:12.960Z,85.72
2017-07-21T04:54:21.920Z,85.82
2017-07-21T04:55:30.876Z,86.11
2017-07-21T04:56:39.837Z,86.01
2017-07-21T04:57:48.793Z,85.82
2017-07-21T04:58:57.755Z,85.82
2017-07-21T05:00:06.715Z,85.63
2017-07-21T05:01:15.674Z,85.63
2017-07-21T05:02:24.629Z,85.24
2017-07-21T05:03:33.938Z,85.14
2017-07-21T05:04:42.897Z,85.72
2017-07-21T05:05:51.862Z,85.14
2017-07-21T05:07:00.825Z,85.72
2017-07-21T05:08:09.785Z,85.43
2017-07-21T05:09:19.064Z,85.82
2017-07-21T05:10:28.025Z,85.34
2017-07-21T05:11:36.985Z,85.34
2017-07-21T05:12:45.943Z,85.24
2017-07-21T05:13:54.901Z,85.24
2017-07-21T05:15:03.868Z,85.05
2017-07-21T05:16:13.148Z,85.24
2017-07-21T05:17:22.111Z,84.95
2017-07-21T05:18:31.081Z,84.95
2017-07-21T05:19:40.042Z,85.05
2017-07-21T05:20:49.002Z,84.95
2017-07-21T05:21:57.958Z,85.14
2017-07-21T05:23:06.930Z,84.86
2017-07-21T05:24:15.898Z,84.86
2017-07-21T05:25:24.858Z,84.86
2017-07-21T05:26:34.142Z,85.05
2017-07-21T05:27:43.100Z,84.86
2017-07-21T05:28:52.065Z,85.34
2017-07-21T05:30:01.027Z,84.95
2017-07-21T05:31:09.990Z,85.14
2017-07-21T05:32:18.954Z,85.24
2017-07-21T05:33:27.916Z,85.24
2017-07-21T05:34:36.875Z,85.05
2017-07-21T05:35:45.836Z,85.14
2017-07-21T05:36:54.796Z,85.43
2017-07-21T05:38:03.754Z,85.43
2017-07-21T05:39:12.715Z,85.34
2017-07-21T05:40:21.689Z,85.34
2017-07-21T05:41:30.652Z,85.14
2017-07-21T05:42:39.614Z,85.05
2017-07-21T05:43:48.931Z,84.76
2017-07-21T05:44:57.900Z,85.14
2017-07-21T05:46:06.862Z,84.76
2017-07-21T05:47:15.845Z,84.86
2017-07-21T05:48:24.817Z,85.09
2017-07-21T05:49:33.797Z,84.8
2017-07-21T05:50:42.758Z,84.8
2017-07-21T05:51:51.721Z,84.9
2017-07-21T05:53:00.701Z,84.7
2017-07-21T05:54:09.667Z,84.42
2017-07-21T05:55:18.966Z,84.32
2017-07-21T05:56:28.275Z,84.7
2017-07-21T05:57:37.562Z,84.9
2017-07-21T05:58:46.524Z,84.8
2017-07-21T05:59:55.472Z,84.52
2017-07-21T06:01:04.431Z,83.94
2017-07-21T06:02:13.403Z,84.03
2017-07-21T06:03:22.361Z,84.42
2017-07-21T06:04:31.314Z,84.32
2017-07-21T06:05:40.277Z,84.22
2017-07-21T06:06:49.238Z,84.03
2017-07-21T06:07:58.509Z,83.94
2017-07-21T06:09:07.483Z,83.74
2017-07-21T06:10:16.445Z,84.03
2017-07-21T06:11:25.404Z,84.22
2017-07-21T06:12:34.362Z,83.64
2017-07-21T06:13:43.330Z,84.12
2017-07-21T06:14:52.291Z,83.45
2017-07-21T06:16:01.247Z,83.84
2017-07-21T06:17:10.215Z,83.2
2017-07-21T06:18:19.175Z,83.26
2017-07-21T06:19:28.134Z,83.26
2017-07-21T06:20:37.096Z,83.2
2017-07-21T06:21:46.065Z,83.5
2017-07-21T06:22:55.029Z,83.11
2017-07-21T06:24:04.647Z,83.01
2017-07-21T06:25:13.609Z,83.3
2017-07-21T06:26:22.562Z,82.62
2017-07-21T06:27:31.523Z,82.92
2017-07-21T06:28:40.489Z,82.82
2017-07-21T06:29:50.659Z,82.72
2017-07-21T06:31:01.196Z,82.62
2017-07-21T06:32:12.405Z,82.82
2017-07-21T06:33:22.531Z,82.43
2017-07-21T06:34:32.237Z,82.24
2017-07-21T06:35:41.753Z,82.34
2017-07-21T06:36:51.645Z,82.05
2017-07-21T06:38:01.813Z,81.85
2017-07-21T06:39:12.322Z,81.8
2017-07-21T06:40:22.811Z,82.24
2017-07-21T06:41:34.577Z,82.09
2017-07-21T06:42:44.868Z,81.9
2017-07-21T06:43:55.822Z,81.99
2017-07-21T06:45:06.223Z,81.6
2017-07-21T06:46:16.740Z,82.09
2017-07-21T06:47:26.757Z,81.9
2017-07-21T06:48:37.800Z,81.85
2017-07-21T06:49:48.445Z,81.7
2017-07-21T06:50:58.646Z,81.9
2017-07-21T06:52:09.166Z,81.7
2017-07-21T06:53:19.961Z,81.22
2017-07-21T06:54:31.042Z,81.99
2017-07-21T06:55:42.622Z,81.32
2017-07-21T06:56:52.691Z,81.22
2017-07-21T06:58:03.586Z,81.32
2017-07-21T06:59:13.577Z,80.93
2017-07-21T07:00:24.916Z,80.93
2017-07-21T07:01:35.789Z,80.64
2017-07-21T07:02:45.358Z,81.32
2017-07-21T07:03:55.427Z,80.93
2017-07-21T07:05:05.636Z,81.16
2017-07-21T07:06:15.651Z,80.78
2017-07-21T07:07:26.187Z,80.39
2017-07-21T07:08:36.968Z,80.1
2017-07-21T07:09:47.211Z,80.49
2017-07-21T07:10:57.855Z,80.58
2017-07-21T07:12:08.575Z,80.39
2017-07-21T07:13:19.264Z,80.39
2017-07-21T07:14:29.687Z,79.72
2017-07-21T07:15:39.150Z,80.39
2017-07-21T07:16:50.127Z,80
2017-07-21T07:18:00.728Z,79.33
2017-07-21T07:19:10.781Z,79.62
2017-07-21T07:20:20.303Z,79.43
2017-07-21T07:21:29.694Z,79.43
2017-07-21T07:22:39.098Z,79.33
2017-07-21T07:23:48.347Z,79.43
2017-07-21T07:24:57.662Z,79.62
2017-07-21T07:26:08.745Z,79.62
2017-07-21T07:27:19.651Z,79.24
2017-07-21T07:28:29.886Z,78.94
2017-07-21T07:29:39.275Z,78.94
2017-07-21T07:30:49.015Z,78.94
2017-07-21T07:31:58.725Z,79.04
2017-07-21T07:33:08.859Z,79.27
2017-07-21T07:34:19.948Z,79.24
2017-07-21T07:35:30.452Z,78.85
2017-07-21T07:36:41.397Z,78.94
2017-07-21T07:37:51.898Z,78.85
2017-07-21T07:39:01.758Z,78.94
2017-07-21T07:40:11.611Z,78.94
2017-07-21T07:41:21.114Z,79.24
2017-07-21T07:42:30.668Z,78.94
2017-07-21T07:43:40.812Z,78.89
2017-07-21T07:44:50.399Z,78.89
2017-07-21T07:45:59.949Z,78.31
2017-07-21T07:47:10.600Z,78.31
2017-07-21T07:48:20.010Z,78.5
2017-07-21T07:49:29.318Z,78.5
2017-07-21T07:50:39.365Z,78.69
2017-07-21T07:51:48.857Z,78.31
2017-07-21T07:52:58.288Z,78.5
2017-07-21T07:54:07.358Z,78.99
2017-07-21T07:55:16.430Z,78.02
2017-07-21T07:56:25.409Z,77.83
2017-07-21T07:57:34.488Z,77.73
2017-07-21T07:58:44.095Z,77.53
2017-07-21T07:59:53.161Z,77.34
2017-07-21T08:01:02.188Z,77.44
2017-07-21T08:02:11.145Z,77.25
2017-07-21T08:03:20.159Z,77.15
2017-07-21T08:04:29.195Z,77.25
2017-07-21T08:05:38.157Z,77.44
2017-07-21T08:06:47.478Z,77.05
2017-07-21T08:07:56.553Z,77.34
2017-07-21T08:09:05.567Z,76.86
2017-07-21T08:10:14.537Z,76.86
2017-07-21T08:11:23.540Z,76.86
2017-07-21T08:12:32.503Z,76.86
2017-07-21T08:13:41.661Z,77.25
2017-07-21T08:14:50.672Z,76.86
2017-07-21T08:15:59.637Z,76.76
2017-07-21T08:17:08.915Z,76.76
2017-07-21T08:18:18.241Z,76.57
2017-07-21T08:19:27.310Z,76.37
2017-07-21T08:20:36.409Z,76.18
2017-07-21T08:21:45.474Z,76.18
2017-07-21T08:22:54.570Z,75.7
2017-07-21T08:24:03.645Z,75.99
2017-07-21T08:25:12.942Z,75.79
2017-07-21T08:26:22.301Z,75.99
2017-07-21T08:27:31.273Z,75.6
2017-07-21T08:28:40.232Z,75.89
2017-07-21T08:29:49.325Z,76.18
2017-07-21T08:30:58.285Z,76.47
2017-07-21T08:32:07.235Z,75.99
2017-07-21T08:33:16.202Z,76.09
2017-07-21T08:34:25.190Z,75.7
2017-07-21T08:35:34.474Z,75.7
2017-07-21T08:36:43.444Z,75.7
2017-07-21T08:37:52.403Z,76.09
2017-07-21T08:39:01.397Z,76.09
2017-07-21T08:40:10.356Z,76.47
2017-07-21T08:41:19.640Z,76.57
2017-07-21T08:42:28.622Z,76.37
2017-07-21T08:43:37.572Z,76.28
2017-07-21T08:44:46.538Z,76.47
2017-07-21T08:45:55.493Z,76.09
2017-07-21T08:47:04.448Z,76.67
2017-07-21T08:48:13.398Z,76.47
2017-07-21T08:49:22.352Z,76.47
2017-07-21T08:50:31.328Z,76.09
2017-07-21T08:51:40.289Z,75.99
2017-07-21T08:52:49.251Z,75.7
2017-07-21T08:53:58.211Z,75.89
2017-07-21T08:55:07.165Z,75.6
2017-07-21T08:56:16.121Z,75.41
2017-07-21T08:57:25.080Z,75.16
2017-07-21T08:58:34.041Z,74.93
2017-07-21T08:59:43.002Z,74.96
2017-07-21T09:00:51.969Z,74.83
2017-07-21T09:02:00.932Z,75.02
2017-07-21T09:03:09.888Z,75.89
2017-07-21T09:04:18.843Z,74.93
2017-07-21T09:05:28.135Z,75.22
2017-07-21T09:06:37.099Z,74.77
2017-07-21T09:07:46.056Z,75.16
2017-07-21T09:08:55.018Z,75.12
2017-07-21T09:10:03.972Z,74.83
2017-07-21T09:11:12.934Z,75.16
2017-07-21T09:12:21.913Z,75.26
2017-07-21T09:13:30.871Z,74.87
2017-07-21T09:14:39.831Z,75.16
2017-07-21T09:15:48.796Z,75.16
2017-07-21T09:16:57.753Z,74.38
2017-07-21T09:18:06.705Z,74.58
2017-07-21T09:19:15.664Z,74.96
2017-07-21T09:20:24.631Z,74.77
2017-07-21T09:21:33.598Z,74.1
2017-07-21T09:22:42.566Z,73.71
2017-07-21T09:23:51.524Z,73.9
2017-07-21T09:25:00.483Z,74.38
2017-07-21T09:26:09.775Z,74.29
2017-07-21T09:27:18.749Z,74.38
2017-07-21T09:28:28.023Z,73.9
2017-07-21T09:29:37.016Z,74.1
2017-07-21T09:30:45.975Z,73.61
2017-07-21T09:31:54.944Z,73.42
2017-07-21T09:33:03.917Z,73.9
2017-07-21T09:34:12.881Z,74
2017-07-21T09:35:22.177Z,73.61
2017-07-21T09:36:31.139Z,74
2017-07-21T09:37:40.444Z,73.9
2017-07-21T09:38:49.411Z,73.42
2017-07-21T09:39:58.374Z,72.94
2017-07-21T09:41:07.327Z,73.26
2017-07-21T09:42:16.307Z,72.97
2017-07-21T09:43:25.268Z,73.26
2017-07-21T09:44:34.555Z,72.68
2017-07-21T09:45:43.512Z,72.68
2017-07-21T09:46:52.469Z,72.58
2017-07-21T09:48:01.430Z,72.68
2017-07-21T09:49:10.396Z,72.3
2017-07-21T09:50:19.361Z,72.3
2017-07-21T09:51:28.320Z,72.2
2017-07-21T09:52:37.283Z,72
2017-07-21T09:53:46.234Z,71.84
2017-07-21T09:54:55.264Z,71.36
2017-07-21T09:56:04.218Z,71.17
2017-07-21T09:57:13.187Z,71.17
2017-07-21T09:58:23.477Z,71.26
2017-07-21T09:59:33.148Z,71.26
2017-07-21T10:00:43.022Z,71.08
2017-07-21T10:01:52.598Z,71.17
2017-07-21T10:03:02.198Z,71.81
2017-07-21T10:04:11.408Z,71.26
2017-07-21T10:05:20.408Z,71.08
2017-07-21T10:06:29.430Z,71.17
2017-07-21T10:07:38.637Z,70.68
2017-07-21T10:08:47.591Z,70.59
2017-07-21T10:10:12.413Z,70.68
2017-07-21T10:11:21.418Z,70.88
2017-07-21T10:12:30.392Z,70.78
2017-07-21T10:13:39.670Z,70.4
2017-07-21T10:14:48.656Z,70.3
2017-07-21T10:15:57.820Z,70.34
2017-07-21T10:17:06.826Z,70.62
2017-07-21T10:18:15.791Z,70.43
2017-07-21T10:19:24.755Z,69.75
2017-07-21T10:20:33.721Z,69.37
2017-07-21T10:21:42.678Z,69.17
2017-07-21T10:22:51.638Z,69.17
2017-07-21T10:24:00.600Z,68.88
2017-07-21T10:25:09.570Z,69.08
2017-07-21T10:26:18.521Z,69.5
2017-07-21T10:27:27.488Z,69.59
2017-07-21T10:28:36.450Z,69.21
2017-07-21T10:29:45.423Z,69.01
2017-07-21T10:30:54.398Z,68.53
2017-07-21T10:32:03.365Z,68.05
2017-07-21T10:33:12.398Z,67.95
2017-07-21T10:34:21.363Z,67.95
2017-07-21T10:35:30.651Z,68.15
2017-07-21T10:36:39.607Z,67.66
2017-07-21T10:37:48.576Z,67.27
2017-07-21T10:38:57.857Z,67.46
2017-07-21T10:40:06.821Z,67.37
2017-07-21T10:41:15.783Z,66.6
2017-07-21T10:42:24.745Z,67.02
2017-07-21T10:43:33.705Z,66.69
2017-07-21T10:44:42.668Z,66.78
2017-07-21T10:45:51.649Z,67.08
2017-07-21T10:47:00.608Z,66.69
2017-07-21T10:48:09.568Z,66.88
2017-07-21T10:49:18.529Z,66.88
2017-07-21T10:50:27.498Z,66.98
2017-07-21T10:51:36.473Z,66.78
2017-07-21T10:52:45.454Z,66.88
2017-07-21T10:53:54.413Z,66.82
2017-07-21T10:55:03.376Z,66.63
2017-07-21T10:56:12.346Z,66.24
2017-07-21T10:57:21.304Z,65.75
2017-07-21T10:58:30.592Z,65.85
2017-07-21T10:59:39.552Z,65.85
2017-07-21T11:00:48.510Z,65.17
2017-07-21T11:01:57.468Z,65.37
2017-07-21T11:03:06.432Z,65.17
2017-07-21T11:04:15.388Z,65.17
2017-07-21T11:05:24.352Z,65.37
2017-07-21T11:06:33.638Z,65.66
2017-07-21T11:07:42.593Z,65.47
2017-07-21T11:08:51.880Z,65.47
2017-07-21T11:10:00.842Z,65.27
2017-07-21T11:11:10.123Z,65.27
2017-07-21T11:12:19.202Z,65.17
2017-07-21T11:13:28.165Z,65.37
2017-07-21T11:14:37.256Z,64.89
2017-07-21T11:15:46.251Z,64.79
2017-07-21T11:16:55.213Z,64.56
2017-07-21T11:18:04.246Z,64.4
2017-07-21T11:19:13.418Z,64.11
2017-07-21T11:20:22.797Z,64.5
2017-07-21T11:21:31.754Z,64.4
2017-07-21T11:22:40.720Z,64.2
2017-07-21T11:23:49.677Z,64.2
2017-07-21T11:24:58.682Z,64.89
2017-07-21T11:26:08.011Z,64.11
2017-07-21T11:27:17.057Z,64.4
2017-07-21T11:28:26.029Z,64.5
2017-07-21T11:29:34.985Z,64.89
2017-07-21T11:30:44.097Z,64.89
2017-07-21T11:31:53.082Z,64.79
2017-07-21T11:33:02.122Z,64.3
2017-07-21T11:34:11.158Z,63.34
2017-07-21T11:35:20.182Z,63.34
2017-07-21T11:36:29.245Z,63.14
2017-07-21T11:37:38.299Z,63.82
2017-07-21T11:38:47.496Z,63.53
2017-07-21T11:39:56.715Z,63.43
2017-07-21T11:41:05.792Z,63.62
2017-07-21T11:42:14.787Z,63.43
2017-07-21T11:43:23.775Z,63.56
2017-07-21T11:44:32.762Z,63.56
2017-07-21T11:45:45.890Z,63.53
2017-07-21T11:47:03.757Z,63.62
2017-07-21T11:48:13.123Z,63.72
2017-07-21T11:49:22.116Z,63.53
2017-07-21T11:50:31.093Z,63.14
2017-07-21T11:51:40.081Z,63.04
2017-07-21T11:52:49.061Z,63.04
2017-07-21T11:53:58.041Z,63.14
2017-07-21T11:55:07.033Z,63.72
2017-07-21T11:56:16.011Z,63.53
2017-07-21T11:57:24.997Z,63.46
2017-07-21T11:58:33.981Z,63.07
2017-07-21T11:59:42.971Z,62.69
2017-07-21T12:00:51.952Z,62.88
2017-07-21T12:02:01.261Z,62.79
2017-07-21T12:03:10.251Z,62.59
2017-07-21T12:04:19.247Z,61.72
2017-07-21T12:05:28.227Z,62.59
2017-07-21T12:06:37.215Z,62.1
2017-07-21T12:07:46.199Z,62.2
2017-07-21T12:08:55.192Z,62.1
2017-07-21T12:10:04.189Z,62.49
2017-07-21T12:11:13.169Z,62.3
2017-07-21T12:12:22.157Z,61.62
2017-07-21T12:13:31.144Z,61.62
2017-07-21T12:14:40.130Z,61.33
2017-07-21T12:15:49.128Z,61.62
2017-07-21T12:16:58.125Z,61.43
2017-07-21T12:18:07.104Z,61.82
2017-07-21T12:19:16.113Z,62.4
2017-07-21T12:20:25.097Z,62.2
2017-07-21T12:21:34.088Z,62.3
2017-07-21T12:22:43.084Z,61.91
2017-07-21T12:23:52.439Z,62.01
2017-07-21T12:25:01.407Z,62.2
2017-07-21T12:26:10.697Z,61.33
2017-07-21T12:27:19.664Z,61.72
2017-07-21T12:28:28.687Z,62.1
2017-07-21T12:29:38.110Z,62.1
2017-07-21T12:30:47.124Z,62.01
2017-07-21T12:31:56.205Z,62.59
2017-07-21T12:33:05.176Z,62.1
2017-07-21T12:34:14.366Z,62.1
2017-07-21T12:35:23.432Z,62.1
2017-07-21T12:36:32.400Z,61.91
2017-07-21T12:37:41.362Z,61.82
2017-07-21T12:38:50.375Z,61.33
2017-07-21T12:39:59.374Z,61.33
2017-07-21T12:41:08.500Z,60.55
2017-07-21T12:42:17.464Z,60.75
2017-07-21T12:43:26.572Z,60.94
2017-07-21T12:44:35.547Z,61.43
2017-07-21T12:45:45.003Z,61.62
2017-07-21T12:46:53.971Z,61.43
2017-07-21T12:48:02.938Z,60.85
2017-07-21T12:49:11.904Z,60.94
2017-07-21T12:50:20.961Z,60.55
2017-07-21T12:51:30.036Z,59.88
2017-07-21T12:52:39.220Z,60.75
2017-07-21T12:53:48.245Z,60.27
2017-07-21T12:54:57.257Z,59.88
2017-07-21T12:56:06.214Z,60.17
2017-07-21T12:57:15.173Z,60.36
2017-07-21T12:58:24.134Z,60.17
2017-07-21T12:59:33.192Z,60.27
2017-07-21T13:00:42.226Z,60.07
2017-07-21T13:01:51.348Z,60.46
2017-07-21T13:03:00.729Z,59.97
2017-07-21T13:04:09.695Z,60.27
2017-07-21T13:05:18.665Z,60.1
2017-07-21T13:06:28.016Z,59.52
2017-07-21T13:07:36.986Z,59.61
2017-07-21T13:08:46.003Z,59.42
2017-07-21T13:09:54.967Z,58.94
2017-07-21T13:11:04.034Z,59.69
2017-07-21T13:12:13.013Z,60
2017-07-21T13:13:22.269Z,59.61
2017-07-21T13:14:31.409Z,59.42
2017-07-21T13:15:40.412Z,59.23
2017-07-21T13:16:49.474Z,59.42
2017-07-21T13:17:58.899Z,59.91
2017-07-21T13:19:08.031Z,59.13
2017-07-21T13:20:16.994Z,59.23
2017-07-21T13:21:26.310Z,58.94
2017-07-21T13:22:35.300Z,58.74
2017-07-21T13:23:44.260Z,58.65
2017-07-21T13:24:53.299Z,58.36
2017-07-21T13:26:02.261Z,58.16
2017-07-21T13:27:11.228Z,58.65
2017-07-21T13:28:20.191Z,58.26
2017-07-21T13:29:29.169Z,57
2017-07-21T13:30:38.776Z,57.09
2017-07-21T13:31:47.749Z,56.05
2017-07-21T13:32:57.646Z,56.41
2017-07-21T13:34:09.464Z,56.45
2017-07-21T13:35:19.429Z,56.25
2017-07-21T13:36:28.449Z,55.67
2017-07-21T13:37:37.464Z,56.05
2017-07-21T13:38:46.429Z,55.87
2017-07-21T13:39:55.394Z,56.05
2017-07-21T13:41:04.697Z,55.96
2017-07-21T13:42:13.849Z,56.15
2017-07-21T13:43:22.814Z,55.96
2017-07-21T13:44:31.780Z,56.09
2017-07-21T13:45:40.738Z,55.69
2017-07-21T13:46:49.704Z,56.37
2017-07-21T13:47:58.677Z,56.18
2017-07-21T13:49:07.635Z,56.28
2017-07-21T13:50:16.593Z,55.79
2017-07-21T13:51:25.566Z,56.37
2017-07-21T13:52:34.850Z,55.02
2017-07-21T13:53:44.315Z,54.44
2017-07-21T13:54:54.773Z,54.44
2017-07-21T13:56:03.748Z,54.53
2017-07-21T13:57:12.833Z,54.92
2017-07-21T13:58:22.119Z,55.02
2017-07-21T13:59:31.084Z,54.92
2017-07-21T14:00:40.048Z,54.63
2017-07-21T14:01:49.883Z,54.63
2017-07-21T14:02:59.302Z,54.72
2017-07-21T14:04:08.356Z,54.46
2017-07-21T14:05:17.497Z,54.94
2017-07-21T14:06:28.017Z,54.75
2017-07-21T14:07:37.024Z,54.66
2017-07-21T14:08:45.978Z,53.3
2017-07-21T14:09:54.946Z,53.88
2017-07-21T14:11:03.904Z,53.59
2017-07-21T14:12:12.862Z,53.49
2017-07-21T14:13:21.829Z,53.2
2017-07-21T14:14:31.110Z,52.91
2017-07-21T14:15:40.072Z,53.66
2017-07-21T14:16:49.039Z,54.14
2017-07-21T14:17:58.012Z,54.05
2017-07-21T14:19:07.166Z,54.63
2017-07-21T14:20:16.271Z,54.63
2017-07-21T14:21:25.340Z,53.95
2017-07-21T14:22:34.328Z,53.56
2017-07-21T14:23:43.341Z,53.69
2017-07-21T14:24:52.516Z,53.56
2017-07-21T14:26:01.565Z,53
2017-07-21T14:27:10.536Z,52.13
2017-07-21T14:28:19.850Z,52.59
2017-07-21T14:29:28.925Z,52.72
2017-07-21T14:30:37.886Z,52.23
2017-07-21T14:31:46.855Z,52.03
2017-07-21T14:32:55.946Z,52.52
2017-07-21T14:34:04.962Z,52.33
2017-07-21T14:35:13.940Z,52.23
2017-07-21T14:36:22.926Z,52.52
2017-07-21T14:37:32.495Z,52.81
2017-07-21T14:38:41.460Z,53.1
2017-07-21T14:39:50.476Z,53.3
2017-07-21T14:40:59.542Z,53.49
2017-07-21T14:42:08.505Z,53.49
2017-07-21T14:43:17.473Z,53
2017-07-21T14:44:26.434Z,53.3
2017-07-21T14:45:35.431Z,53
2017-07-21T14:46:44.464Z,53.78
2017-07-21T14:47:53.452Z,53.88
2017-07-21T14:49:02.423Z,54.75
2017-07-21T14:50:11.485Z,53.59
2017-07-21T14:51:20.839Z,52.2
2017-07-21T14:52:29.804Z,52.03
2017-07-21T14:53:38.816Z,52.4
2017-07-21T14:54:47.844Z,52.5
2017-07-21T14:55:57.131Z,52.3
2017-07-21T14:57:06.409Z,52.2